createdAt,value
2022-11-20T00:01:52.748Z,64.10
2022-11-20T00:04:19.423Z,63.67
2022-11-20T00:06:46.045Z,65.00
2022-11-20T00:09:12.713Z,64.48
2022-11-20T00:11:39.323Z,64.41
2022-11-20T00:14:05.974Z,64.27
2022-11-20T00:16:32.605Z,64.00
2022-11-20T00:18:59.248Z,63.99
2022-11-20T00:21:25.894Z,64.42
2022-11-20T00:23:54.960Z,64.33
2022-11-20T00:26:21.849Z,64.36
2022-11-20T00:28:50.778Z,64.04
2022-11-20T00:31:17.370Z,63.20
2022-11-20T00:33:43.991Z,63.75
2022-11-20T00:36:10.605Z,63.91
2022-11-20T00:38:37.249Z,64.04
2022-11-20T00:41:03.907Z,63.80
2022-11-20T00:43:30.527Z,63.25
2022-11-20T00:45:57.183Z,64.41
2022-11-20T00:48:23.838Z,65.32
2022-11-20T00:50:50.446Z,65.14
2022-11-20T00:53:17.074Z,64.68
2022-11-20T00:55:43.731Z,64.71
2022-11-20T00:58:14.189Z,64.43
2022-11-20T01:00:41.133Z,64.33
2022-11-20T01:03:07.744Z,64.13
2022-11-20T01:05:34.411Z,64.80
2022-11-20T01:08:01.007Z,65.61
2022-11-20T01:10:27.658Z,65.56
2022-11-20T01:12:54.258Z,66.26
2022-11-20T01:15:20.936Z,67.81
2022-11-20T01:17:47.593Z,69.21
2022-11-20T01:20:14.249Z,68.83
2022-11-20T01:22:40.933Z,68.32
2022-11-20T01:25:07.529Z,67.59
2022-11-20T01:27:34.157Z,67.68
2022-11-20T01:30:01.387Z,66.86
2022-11-20T01:32:28.266Z,65.82
2022-11-20T01:34:54.878Z,65.52
2022-11-20T01:37:21.539Z,65.59
2022-11-20T01:39:48.201Z,65.37
2022-11-20T01:42:14.865Z,64.87
2022-11-20T01:44:41.539Z,64.84
2022-11-20T01:47:08.175Z,64.85
2022-11-20T01:49:34.784Z,64.50
2022-11-20T01:52:01.473Z,64.43
2022-11-20T01:54:28.155Z,64.95
2022-11-20T01:56:54.807Z,64.77
2022-11-20T01:59:21.945Z,64.61
2022-11-20T02:01:48.880Z,64.71
2022-11-20T02:04:15.555Z,64.86
2022-11-20T02:06:42.683Z,64.39
2022-11-20T02:09:09.317Z,64.26
2022-11-20T02:11:35.908Z,63.95
2022-11-20T02:14:02.557Z,63.98
2022-11-20T02:16:29.178Z,63.98
2022-11-20T02:18:55.781Z,64.45
2022-11-20T02:21:22.396Z,64.04
2022-11-20T02:23:49.027Z,63.74
2022-11-20T02:26:15.661Z,64.15
2022-11-20T02:28:42.257Z,64.72
2022-11-20T02:31:08.834Z,64.34
2022-11-20T02:33:35.541Z,64.34
2022-11-20T02:36:02.207Z,64.09
2022-11-20T02:38:28.831Z,64.19
2022-11-20T02:40:55.956Z,64.43
2022-11-20T02:43:22.699Z,64.22
2022-11-20T02:45:49.280Z,64.15
2022-11-20T02:48:15.876Z,63.96
2022-11-20T02:50:42.533Z,63.90
2022-11-20T02:53:09.162Z,63.90
2022-11-20T02:55:35.846Z,64.31
2022-11-20T02:58:02.497Z,64.34
2022-11-20T03:00:29.166Z,64.54
2022-11-20T03:02:55.773Z,64.27
2022-11-20T03:05:22.422Z,64.47
2022-11-20T03:07:49.039Z,64.23
2022-11-20T03:10:15.613Z,63.85
2022-11-20T03:12:42.225Z,63.81
2022-11-20T03:15:08.850Z,64.35
2022-11-20T03:17:35.476Z,64.36
2022-11-20T03:20:02.084Z,63.92
2022-11-20T03:22:28.710Z,63.86
2022-11-20T03:24:55.320Z,64.05
2022-11-20T03:27:21.960Z,64.15
2022-11-20T03:29:48.567Z,63.72
2022-11-20T03:32:15.167Z,63.57
2022-11-20T03:34:41.763Z,63.43
2022-11-20T03:37:08.374Z,63.53
2022-11-20T03:39:35.015Z,64.39
2022-11-20T03:42:01.682Z,64.62
2022-11-20T03:44:28.295Z,64.16
2022-11-20T03:46:54.945Z,64.33
2022-11-20T03:49:21.964Z,64.17
2022-11-20T03:51:48.833Z,64.24
2022-11-20T03:54:15.462Z,64.26
2022-11-20T03:56:42.065Z,64.15
2022-11-20T03:59:08.668Z,64.06
2022-11-20T04:01:35.389Z,64.02
2022-11-20T04:04:02.029Z,64.21
2022-11-20T04:06:28.640Z,64.38
2022-11-20T04:08:55.225Z,64.56
2022-11-20T04:11:21.845Z,64.22
2022-11-20T04:13:48.552Z,64.30
2022-11-20T04:16:15.193Z,64.19
2022-11-20T04:18:41.789Z,64.48
2022-11-20T04:21:08.410Z,64.27
2022-11-20T04:23:35.003Z,64.48
2022-11-20T04:26:01.625Z,64.77
2022-11-20T04:28:28.212Z,64.71
2022-11-20T04:30:54.853Z,64.40
2022-11-20T04:33:21.516Z,63.75
2022-11-20T04:35:48.121Z,63.96
2022-11-20T04:38:14.706Z,64.55
2022-11-20T04:40:41.343Z,64.56
2022-11-20T04:43:07.988Z,64.93
2022-11-20T04:45:34.621Z,64.76
2022-11-20T04:48:01.282Z,64.50
2022-11-20T04:50:27.969Z,64.57
2022-11-20T04:52:54.636Z,64.19
2022-11-20T04:55:21.234Z,64.28
2022-11-20T04:57:47.881Z,64.67
2022-11-20T05:00:14.512Z,64.48
2022-11-20T05:02:41.448Z,64.70
2022-11-20T05:05:08.101Z,64.63
2022-11-20T05:07:34.824Z,64.17
2022-11-20T05:10:01.467Z,64.48
2022-11-20T05:12:28.109Z,64.76
2022-11-20T05:14:54.889Z,64.95
2022-11-20T05:17:21.551Z,64.48
2022-11-20T05:19:52.021Z,64.27
2022-11-20T05:22:19.738Z,64.20
2022-11-20T05:24:46.678Z,64.54
2022-11-20T05:27:13.333Z,64.27
2022-11-20T05:29:39.956Z,64.52
2022-11-20T05:32:06.624Z,64.86
2022-11-20T05:34:33.220Z,65.09
2022-11-20T05:36:59.852Z,64.81
2022-11-20T05:39:26.470Z,64.76
2022-11-20T05:41:53.095Z,64.72
2022-11-20T05:44:19.743Z,64.80
2022-11-20T05:46:46.373Z,64.80
2022-11-20T05:49:13.015Z,64.53
2022-11-20T05:51:39.702Z,64.73
2022-11-20T05:54:06.396Z,64.77
2022-11-20T05:56:33.066Z,64.58
2022-11-20T05:58:59.710Z,64.57
2022-11-20T06:01:26.373Z,64.41
2022-11-20T06:03:52.976Z,64.36
2022-11-20T06:06:19.594Z,64.22
2022-11-20T06:08:46.243Z,64.08
2022-11-20T06:11:12.836Z,64.33
2022-11-20T06:13:42.350Z,64.59
2022-11-20T06:16:09.302Z,64.62
2022-11-20T06:18:35.958Z,65.27
2022-11-20T06:21:02.560Z,64.99
2022-11-20T06:23:29.190Z,64.71
2022-11-20T06:25:55.812Z,64.71
2022-11-20T06:28:22.458Z,64.52
2022-11-20T06:30:49.123Z,64.60
2022-11-20T06:33:15.770Z,64.68
2022-11-20T06:35:42.490Z,64.91
2022-11-20T06:38:09.178Z,64.69
2022-11-20T06:40:35.828Z,64.65
2022-11-20T06:43:02.460Z,65.31
2022-11-20T06:45:29.105Z,65.76
2022-11-20T06:47:55.729Z,65.44
2022-11-20T06:50:22.312Z,65.04
2022-11-20T06:52:48.969Z,64.89
2022-11-20T06:55:15.605Z,64.97
2022-11-20T06:57:42.247Z,65.01
2022-11-20T07:00:08.930Z,64.96
2022-11-20T07:02:35.562Z,64.87
2022-11-20T07:05:02.222Z,64.81
2022-11-20T07:07:28.880Z,65.34
2022-11-20T07:09:55.523Z,66.75
2022-11-20T07:12:22.187Z,66.46
2022-11-20T07:14:48.797Z,66.12
2022-11-20T07:17:15.450Z,65.56
2022-11-20T07:19:42.115Z,65.36
2022-11-20T07:22:08.760Z,65.10
2022-11-20T07:24:35.437Z,64.63
2022-11-20T07:27:02.064Z,64.70
2022-11-20T07:29:28.701Z,64.70
2022-11-20T07:31:55.329Z,64.39
2022-11-20T07:34:22.021Z,64.30
2022-11-20T07:36:48.601Z,64.09
2022-11-20T07:39:15.219Z,64.05
2022-11-20T07:41:41.850Z,64.18
2022-11-20T07:44:08.506Z,63.88
2022-11-20T07:46:35.128Z,64.01
2022-11-20T07:49:01.799Z,64.16
2022-11-20T07:51:28.511Z,63.76
2022-11-20T07:53:55.140Z,64.06
2022-11-20T07:56:21.743Z,63.76
2022-11-20T07:58:48.400Z,62.76
2022-11-20T08:01:15.104Z,63.36
2022-11-20T08:03:41.797Z,63.24
2022-11-20T08:06:08.436Z,63.31
2022-11-20T08:08:38.860Z,63.80
2022-11-20T08:11:08.986Z,64.36
2022-11-20T08:13:35.612Z,65.18
2022-11-20T08:16:02.253Z,64.94
2022-11-20T08:18:31.806Z,64.38
2022-11-20T08:20:58.953Z,64.39
2022-11-20T08:23:25.552Z,63.96
2022-11-20T08:25:52.333Z,64.04
2022-11-20T08:28:21.581Z,63.86
2022-11-20T08:30:48.643Z,63.49
2022-11-20T08:33:15.310Z,63.76
2022-11-20T08:35:42.059Z,63.70
2022-11-20T08:38:08.663Z,64.05
2022-11-20T08:40:35.333Z,64.31
2022-11-20T08:43:02.005Z,63.78
2022-11-20T08:45:33.773Z,63.68
2022-11-20T08:48:01.450Z,64.23
2022-11-20T08:50:28.059Z,63.79
2022-11-20T08:52:54.752Z,63.69
2022-11-20T08:55:21.395Z,63.77
2022-11-20T08:57:50.764Z,63.88
2022-11-20T09:00:17.578Z,63.44
2022-11-20T09:02:44.223Z,63.10
2022-11-20T09:05:10.898Z,63.31
2022-11-20T09:07:37.571Z,63.74
2022-11-20T09:10:23.050Z,63.82
2022-11-20T09:12:50.498Z,64.85
2022-11-20T09:15:17.125Z,65.07
2022-11-20T09:17:43.722Z,64.62
2022-11-20T09:20:10.378Z,64.09
2022-11-20T09:22:37.039Z,63.24
2022-11-20T09:25:03.706Z,63.21
2022-11-20T09:27:30.372Z,63.55
2022-11-20T09:29:57.060Z,63.82
2022-11-20T09:32:23.658Z,64.10
2022-11-20T09:34:50.354Z,63.43
2022-11-20T09:37:17.026Z,63.29
2022-11-20T09:39:43.674Z,63.48
2022-11-20T09:42:10.283Z,63.31
2022-11-20T09:44:36.982Z,63.09
2022-11-20T09:47:03.632Z,63.06
2022-11-20T09:49:32.641Z,63.63
2022-11-20T09:51:59.599Z,64.67
2022-11-20T09:54:26.287Z,63.96
2022-11-20T09:56:53.912Z,62.79
2022-11-20T09:59:20.789Z,62.02
2022-11-20T10:01:47.708Z,62.49
2022-11-20T10:04:20.582Z,61.65
2022-11-20T10:06:59.498Z,61.84
2022-11-20T10:09:34.552Z,61.20
2022-11-20T10:12:01.234Z,60.94
2022-11-20T10:14:27.850Z,60.74
2022-11-20T10:16:54.503Z,60.02
2022-11-20T10:19:21.370Z,59.77
2022-11-20T10:21:48.267Z,60.24
2022-11-20T10:24:14.902Z,60.46
2022-11-20T10:26:41.494Z,59.52
2022-11-20T10:29:09.092Z,59.46
2022-11-20T10:31:35.942Z,60.79
2022-11-20T10:34:12.012Z,60.37
2022-11-20T10:36:39.741Z,59.93
2022-11-20T10:39:06.435Z,61.11
2022-11-20T10:41:35.914Z,59.88
2022-11-20T10:44:03.793Z,59.26
2022-11-20T10:46:30.391Z,58.21
2022-11-20T10:48:57.046Z,58.61
2022-11-20T10:51:23.732Z,59.99
2022-11-20T10:53:50.374Z,58.99
2022-11-20T10:56:17.077Z,57.73
2022-11-20T10:58:43.726Z,58.73
2022-11-20T11:01:10.439Z,57.15
2022-11-20T11:03:37.134Z,58.61
2022-11-20T11:06:03.839Z,58.92
2022-11-20T11:08:30.494Z,59.27
2022-11-20T11:10:57.170Z,58.92
2022-11-20T11:13:23.848Z,59.04
2022-11-20T11:15:50.532Z,58.83
2022-11-20T11:18:17.150Z,57.88
2022-11-20T11:20:43.796Z,58.41
2022-11-20T11:23:10.491Z,57.78
2022-11-20T11:25:37.255Z,58.21
2022-11-20T11:28:03.883Z,58.41
2022-11-20T11:30:30.512Z,59.53
2022-11-20T11:32:57.153Z,57.88
2022-11-20T11:35:23.841Z,59.21
2022-11-20T11:37:50.446Z,60.05
2022-11-20T11:40:23.760Z,58.37
2022-11-20T11:42:50.824Z,57.21
2022-11-20T11:45:17.473Z,56.34
2022-11-20T11:47:44.152Z,57.20
2022-11-20T11:50:11.124Z,56.65
2022-11-20T11:52:37.787Z,56.45
2022-11-20T11:55:10.073Z,56.68
2022-11-20T11:57:38.205Z,57.15
2022-11-20T12:00:04.853Z,56.43
2022-11-20T12:02:31.539Z,55.42
2022-11-20T12:04:58.187Z,55.49
2022-11-20T12:07:45.532Z,55.06
2022-11-20T12:10:11.434Z,55.50
2022-11-20T12:12:38.028Z,56.37
2022-11-20T12:15:04.709Z,56.86
2022-11-20T12:17:31.366Z,54.70
2022-11-20T12:19:57.999Z,52.33
2022-11-20T12:22:24.647Z,53.06
2022-11-20T12:24:51.347Z,55.37
2022-11-20T12:27:17.981Z,56.48
2022-11-20T12:29:44.616Z,55.39
2022-11-20T12:32:11.299Z,53.46
2022-11-20T12:34:37.957Z,51.46
2022-11-20T12:37:04.556Z,52.26
2022-11-20T12:39:31.191Z,52.31
2022-11-20T12:41:57.810Z,51.37
2022-11-20T12:44:24.405Z,52.35
2022-11-20T12:46:51.366Z,52.17
2022-11-20T12:49:18.030Z,51.07
2022-11-20T12:51:44.724Z,50.79
2022-11-20T12:54:11.333Z,52.37
2022-11-20T12:56:37.921Z,52.58
2022-11-20T12:59:04.619Z,52.90
2022-11-20T13:01:31.242Z,53.73
2022-11-20T13:03:57.886Z,54.34
2022-11-20T13:06:24.520Z,52.91
2022-11-20T13:08:51.167Z,51.07
2022-11-20T13:11:17.757Z,50.67
2022-11-20T13:13:44.382Z,51.88
2022-11-20T13:16:14.399Z,52.82
2022-11-20T13:18:41.825Z,53.07
2022-11-20T13:21:08.433Z,53.76
2022-11-20T13:23:35.066Z,52.16
2022-11-20T13:26:01.712Z,50.65
2022-11-20T13:28:28.439Z,51.36
2022-11-20T13:30:55.042Z,53.44
2022-11-20T13:33:21.709Z,52.68
2022-11-20T13:35:48.384Z,52.04
2022-11-20T13:38:15.022Z,51.76
2022-11-20T13:40:44.674Z,52.83
2022-11-20T13:43:11.354Z,52.09
2022-11-20T13:45:38.051Z,52.91
2022-11-20T13:48:04.711Z,51.36
2022-11-20T13:50:31.373Z,51.25
2022-11-20T13:52:58.043Z,51.53
2022-11-20T13:55:24.652Z,51.33
2022-11-20T13:57:52.184Z,51.59
2022-11-20T14:00:19.000Z,51.71
2022-11-20T14:02:45.667Z,50.08
2022-11-20T14:05:12.253Z,53.08
2022-11-20T14:07:38.918Z,53.54
2022-11-20T14:10:05.646Z,52.40
2022-11-20T14:12:32.349Z,52.43
2022-11-20T14:14:59.028Z,53.38
2022-11-20T14:17:25.672Z,53.63
2022-11-20T14:19:52.278Z,53.66
2022-11-20T14:22:18.930Z,53.04
2022-11-20T14:24:45.555Z,53.34
2022-11-20T14:27:12.219Z,54.12
2022-11-20T14:29:38.871Z,54.55
2022-11-20T14:32:05.535Z,54.39
2022-11-20T14:34:32.199Z,54.06
2022-11-20T14:36:58.835Z,54.13
2022-11-20T14:39:25.521Z,54.13
2022-11-20T14:41:52.195Z,54.27
2022-11-20T14:44:18.867Z,54.43
2022-11-20T14:46:45.593Z,54.55
2022-11-20T14:49:12.292Z,55.10
2022-11-20T14:51:38.949Z,55.39
2022-11-20T14:54:05.630Z,55.80
2022-11-20T14:56:32.273Z,55.89
2022-11-20T14:58:58.903Z,55.58
2022-11-20T15:01:25.509Z,55.70
2022-11-20T15:03:52.243Z,56.20
2022-11-20T15:06:18.884Z,56.48
2022-11-20T15:08:45.551Z,56.78
2022-11-20T15:11:12.195Z,56.92
2022-11-20T15:13:38.846Z,57.29
2022-11-20T15:16:05.543Z,57.58
2022-11-20T15:18:32.584Z,57.64
2022-11-20T15:20:59.223Z,57.47
2022-11-20T15:23:25.878Z,57.71
2022-11-20T15:25:52.534Z,58.13
2022-11-20T15:28:19.169Z,58.08
2022-11-20T15:30:45.815Z,58.38
2022-11-20T15:33:12.496Z,58.92
2022-11-20T15:35:39.119Z,59.65
2022-11-20T15:38:05.792Z,60.04
2022-11-20T15:40:32.433Z,60.54
2022-11-20T15:42:59.115Z,60.23
2022-11-20T15:45:25.714Z,60.39
2022-11-20T15:47:52.361Z,61.29
2022-11-20T15:50:19.044Z,60.10
2022-11-20T15:52:45.673Z,60.23
2022-11-20T15:55:12.323Z,61.09
2022-11-20T15:57:38.931Z,61.44
2022-11-20T16:00:05.575Z,60.96
2022-11-20T16:02:32.221Z,60.95
2022-11-20T16:04:58.884Z,60.55
2022-11-20T16:07:25.620Z,61.01
2022-11-20T16:09:52.359Z,61.20
2022-11-20T16:12:18.999Z,60.80
2022-11-20T16:14:45.682Z,61.57
2022-11-20T16:17:12.302Z,61.66
2022-11-20T16:19:38.946Z,61.91
2022-11-20T16:22:05.615Z,62.09
2022-11-20T16:24:32.308Z,61.84
2022-11-20T16:26:58.967Z,61.65
2022-11-20T16:29:25.549Z,61.50
2022-11-20T16:31:52.194Z,61.32
2022-11-20T16:34:18.849Z,61.43
2022-11-20T16:36:45.525Z,61.48
2022-11-20T16:39:12.191Z,61.16
2022-11-20T16:41:38.843Z,61.39
2022-11-20T16:44:05.545Z,61.57
2022-11-20T16:46:32.205Z,61.47
2022-11-20T16:48:58.869Z,61.80
2022-11-20T16:51:25.542Z,63.86
2022-11-20T16:53:52.213Z,63.70
2022-11-20T16:56:18.941Z,65.41
2022-11-20T16:58:45.660Z,64.73
2022-11-20T17:01:12.303Z,64.11
2022-11-20T17:03:38.991Z,63.74
2022-11-20T17:06:05.642Z,62.99
2022-11-20T17:08:32.419Z,64.58
2022-11-20T17:13:43.276Z,65.16
2022-11-20T17:16:09.922Z,64.70
2022-11-20T17:18:36.568Z,64.10
2022-11-20T17:21:03.234Z,65.20
2022-11-20T17:23:29.886Z,64.37
2022-11-20T17:25:56.480Z,64.03
2022-11-20T17:28:23.147Z,63.75
2022-11-20T17:30:49.756Z,64.38
2022-11-20T17:33:16.401Z,64.40
2022-11-20T17:35:43.043Z,65.20
2022-11-20T17:38:09.663Z,65.18
2022-11-20T17:40:36.257Z,64.04
2022-11-20T17:43:02.887Z,64.39
2022-11-20T17:45:29.583Z,66.46
2022-11-20T17:47:56.242Z,67.95
2022-11-20T17:50:22.862Z,68.53
2022-11-20T17:52:49.554Z,68.42
2022-11-20T17:55:16.196Z,69.78
2022-11-20T17:57:42.817Z,68.92
2022-11-20T18:00:09.454Z,68.92
2022-11-20T18:02:36.098Z,68.65
2022-11-20T18:05:02.754Z,67.81
2022-11-20T18:07:29.433Z,66.85
2022-11-20T18:09:56.161Z,66.01
2022-11-20T18:12:22.788Z,65.27
2022-11-20T18:14:49.464Z,65.30
2022-11-20T18:17:16.149Z,64.54
2022-11-20T18:19:55.715Z,64.39
2022-11-20T18:22:29.412Z,64.75
2022-11-20T18:24:56.058Z,64.50
2022-11-20T18:27:22.756Z,64.12
2022-11-20T18:29:49.364Z,64.46
2022-11-20T18:32:15.972Z,63.95
2022-11-20T18:34:42.619Z,63.60
2022-11-20T18:37:09.289Z,63.61
2022-11-20T18:39:35.945Z,63.03
2022-11-20T18:42:02.538Z,63.23
2022-11-20T18:44:29.201Z,64.00
2022-11-20T18:46:55.828Z,64.11
2022-11-20T18:49:22.418Z,64.72
2022-11-20T18:51:49.118Z,64.53
2022-11-20T18:54:15.786Z,63.50
2022-11-20T18:56:42.408Z,63.55
2022-11-20T18:59:09.038Z,63.91
2022-11-20T19:01:35.737Z,63.32
2022-11-20T19:04:02.428Z,62.84
2022-11-20T19:06:29.045Z,63.39
2022-11-20T19:08:58.659Z,62.93
2022-11-20T19:11:25.302Z,63.22
2022-11-20T19:13:51.930Z,62.74
2022-11-20T19:16:19.556Z,62.53
2022-11-20T19:18:46.192Z,62.23
2022-11-20T19:21:12.809Z,62.55
2022-11-20T19:23:39.478Z,62.64
2022-11-20T19:26:06.149Z,62.56
2022-11-20T19:28:32.804Z,63.05
2022-11-20T19:31:00.776Z,62.70
2022-11-20T19:33:27.400Z,62.37
2022-11-20T19:35:54.011Z,62.19
2022-11-20T19:38:20.689Z,62.38
2022-11-20T19:40:47.335Z,62.76
2022-11-20T19:43:14.030Z,62.85
2022-11-20T19:45:40.634Z,62.42
2022-11-20T19:48:08.461Z,62.51
2022-11-20T19:50:37.445Z,62.44
2022-11-20T19:53:04.097Z,62.38
2022-11-20T19:55:30.787Z,62.04
2022-11-20T19:57:57.424Z,62.56
2022-11-20T20:00:29.549Z,62.75
2022-11-20T20:02:59.143Z,62.97
2022-11-20T20:05:25.817Z,62.11
2022-11-20T20:07:52.467Z,62.41
2022-11-20T20:10:19.116Z,62.31
2022-11-20T20:12:45.760Z,62.51
2022-11-20T20:15:12.383Z,62.30
2022-11-20T20:17:39.142Z,62.25
2022-11-20T20:20:05.817Z,62.61
2022-11-20T20:22:32.485Z,62.77
2022-11-20T20:25:02.196Z,62.43
2022-11-20T20:27:28.852Z,63.93
2022-11-20T20:29:55.838Z,63.75
2022-11-20T20:32:22.472Z,63.49
2022-11-20T20:34:49.092Z,62.88
2022-11-20T20:37:15.725Z,62.84
2022-11-20T20:39:42.407Z,62.86
2022-11-20T20:42:09.027Z,62.20
2022-11-20T20:44:35.656Z,62.41
2022-11-20T20:47:02.282Z,62.49
2022-11-20T20:52:13.169Z,62.36
2022-11-20T20:54:39.822Z,62.34
2022-11-20T20:57:06.451Z,62.96
2022-11-20T20:59:33.046Z,62.89
2022-11-20T21:01:59.715Z,63.36
2022-11-20T21:04:26.346Z,63.29
2022-11-20T21:06:52.988Z,63.29
2022-11-20T21:09:19.625Z,62.90
2022-11-20T21:11:46.288Z,63.00
2022-11-20T21:14:12.962Z,63.36
2022-11-20T21:16:39.619Z,63.29
2022-11-20T21:19:06.329Z,63.59
2022-11-20T21:21:32.943Z,63.08
2022-11-20T21:23:59.587Z,62.96
2022-11-20T21:26:26.253Z,62.77
2022-11-20T21:28:52.898Z,62.99
2022-11-20T21:31:19.610Z,63.24
2022-11-20T21:33:47.254Z,63.18
2022-11-20T21:36:13.932Z,63.05
2022-11-20T21:38:42.742Z,63.43
2022-11-20T21:41:09.381Z,63.75
2022-11-20T21:43:36.083Z,62.46
2022-11-20T21:46:02.705Z,62.85
2022-11-20T21:48:29.322Z,62.57
2022-11-20T21:50:55.916Z,62.76
2022-11-20T21:53:22.537Z,63.62
2022-11-20T21:55:49.165Z,63.86
2022-11-20T21:58:15.824Z,63.38
2022-11-20T22:00:42.479Z,63.06
2022-11-20T22:03:09.172Z,63.72
2022-11-20T22:05:35.772Z,63.20
2022-11-20T22:08:02.485Z,63.08
2022-11-20T22:10:29.119Z,62.64
2022-11-20T22:12:55.766Z,63.15
2022-11-20T22:15:53.275Z,62.66
2022-11-20T22:18:09.014Z,62.91
2022-11-20T22:20:35.619Z,62.36
2022-11-20T22:23:02.287Z,63.06
2022-11-20T22:25:28.912Z,63.26
2022-11-20T22:27:55.580Z,63.70
2022-11-20T22:30:22.266Z,64.23
2022-11-20T22:32:48.887Z,63.29
2022-11-20T22:35:15.547Z,63.19
2022-11-20T22:37:42.716Z,62.86
2022-11-20T22:40:09.385Z,62.96
2022-11-20T22:42:36.066Z,62.20
2022-11-20T22:45:02.685Z,62.61
2022-11-20T22:47:29.340Z,62.71
2022-11-20T22:49:55.988Z,62.67
2022-11-20T22:52:22.679Z,62.83
2022-11-20T22:54:49.343Z,62.89
2022-11-20T22:57:16.008Z,62.73
2022-11-20T22:59:42.710Z,62.68
2022-11-20T23:02:09.381Z,62.68
2022-11-20T23:04:36.050Z,62.70
2022-11-20T23:07:02.831Z,63.26
2022-11-20T23:09:29.551Z,62.80
2022-11-20T23:11:56.172Z,62.99
2022-11-20T23:14:27.547Z,63.24
2022-11-20T23:16:54.570Z,63.33
2022-11-20T23:19:21.222Z,63.80
2022-11-20T23:21:47.856Z,63.72
2022-11-20T23:24:14.506Z,63.34
2022-11-20T23:26:41.139Z,63.08
2022-11-20T23:29:07.832Z,62.39
2022-11-20T23:31:34.539Z,62.95
2022-11-20T23:34:01.170Z,63.34
2022-11-20T23:36:27.793Z,63.96
2022-11-20T23:38:54.425Z,62.97
2022-11-20T23:41:21.087Z,62.26
2022-11-20T23:43:47.719Z,63.13
2022-11-20T23:46:16.837Z,63.29
2022-11-20T23:48:43.772Z,63.21
2022-11-20T23:51:10.426Z,64.70
2022-11-20T23:53:37.052Z,63.29
2022-11-20T23:56:03.685Z,64.31
2022-11-20T23:58:30.351Z,63.45
